HWL2707 KLAX-KSAN
Flight info
| Callsign | HWL2707 |
|---|---|
| Flight time | 0h 35m |
| Altitude | 13000 |
| Route | LAXX1 MZB |
| Aircraft | A321/M-SDE3FGHIRWY/LB1 |
Departure
| Time | 2026-05-08 06:17 |
|---|---|
| Airport | Los Angeles International Airport (KLAX) |
Arrival
| Time | 2026-05-08 06:53 |
|---|---|
| Airport | San Diego International Airport (KSAN) |
| Time | Latitude | Longitude | Altitude | Speed | Heading |
|---|---|---|---|---|---|
| 2026-05-08 06:03 | 33.94790 | -118.40176 | 127 ft | 0 kts | 144° |
| 2026-05-08 06:11 | 33.94795 | -118.40181 | 127 ft | 2 kts | 144° |
| 2026-05-08 06:11 | 33.94807 | -118.40191 | 126 ft | 1 kts | 144° |
| 2026-05-08 06:12 | 33.94815 | -118.40198 | 126 ft | 2 kts | 134° |
| 2026-05-08 06:12 | 33.94822 | -118.40214 | 126 ft | 2 kts | 104° |
| 2026-05-08 06:12 | 33.94824 | -118.40225 | 126 ft | 2 kts | 88° |
| 2026-05-08 06:12 | 33.94818 | -118.40248 | 126 ft | 2 kts | 53° |
| 2026-05-08 06:13 | 33.94811 | -118.40257 | 126 ft | 2 kts | 36° |
| 2026-05-08 06:13 | 33.94797 | -118.40265 | 127 ft | 2 kts | 11° |
| 2026-05-08 06:13 | 33.94786 | -118.40266 | 127 ft | 1 kts | 351° |
| 2026-05-08 06:13 | 33.94782 | -118.40265 | 127 ft | 0 kts | 354° |
| 2026-05-08 06:15 | 33.94783 | -118.40265 | 127 ft | 0 kts | 354° |
| 2026-05-08 06:15 | 33.94798 | -118.40268 | 127 ft | 4 kts | 349° |
| 2026-05-08 06:15 | 33.94844 | -118.40287 | 125 ft | 9 kts | 340° |
| 2026-05-08 06:15 | 33.94903 | -118.40247 | 124 ft | 13 kts | 81° |
| 2026-05-08 06:16 | 33.94913 | -118.40128 | 123 ft | 10 kts | 85° |
| 2026-05-08 06:16 | 33.94956 | -118.40057 | 121 ft | 13 kts | 4° |
| 2026-05-08 06:16 | 33.95029 | -118.40115 | 120 ft | 14 kts | 268° |
| 2026-05-08 06:16 | 33.95011 | -118.40245 | 122 ft | 24 kts | 263° |
| 2026-05-08 06:17 | 33.94854 | -118.41845 | 127 ft | 159 kts | 263° |
| 2026-05-08 06:17 | 33.94707 | -118.43286 | 427 ft | 183 kts | 262° |
| 2026-05-08 06:17 | 33.94509 | -118.44854 | 1133 ft | 188 kts | 262° |
| 2026-05-08 06:18 | 33.94338 | -118.46341 | 2031 ft | 180 kts | 262° |
| 2026-05-08 06:18 | 33.93867 | -118.47779 | 2544 ft | 194 kts | 231° |
| 2026-05-08 06:18 | 33.92719 | -118.48655 | 2880 ft | 206 kts | 195° |
| 2026-05-08 06:18 | 33.91252 | -118.48627 | 3165 ft | 220 kts | 160° |
| 2026-05-08 06:19 | 33.90012 | -118.47507 | 3404 ft | 234 kts | 121° |
| 2026-05-08 06:19 | 33.89423 | -118.45634 | 3734 ft | 248 kts | 103° |
| 2026-05-08 06:19 | 33.88911 | -118.43602 | 4113 ft | 265 kts | 105° |
| 2026-05-08 06:19 | 33.88331 | -118.41470 | 4682 ft | 274 kts | 106° |
| 2026-05-08 06:20 | 33.87722 | -118.39272 | 5372 ft | 278 kts | 106° |
| 2026-05-08 06:20 | 33.87111 | -118.37071 | 6049 ft | 283 kts | 107° |
| 2026-05-08 06:20 | 33.86491 | -118.34834 | 6731 ft | 288 kts | 107° |
| 2026-05-08 06:20 | 33.85854 | -118.32530 | 7467 ft | 291 kts | 107° |
| 2026-05-08 06:21 | 33.85221 | -118.30241 | 8241 ft | 292 kts | 107° |
| 2026-05-08 06:21 | 33.84577 | -118.27917 | 9009 ft | 294 kts | 107° |
| 2026-05-08 06:21 | 33.83937 | -118.25609 | 9758 ft | 296 kts | 107° |
| 2026-05-08 06:21 | 33.83283 | -118.23249 | 10446 ft | 300 kts | 107° |
| 2026-05-08 06:22 | 33.82616 | -118.20843 | 10800 ft | 316 kts | 107° |
| 2026-05-08 06:22 | 33.81903 | -118.18269 | 11097 ft | 333 kts | 107° |
| 2026-05-08 06:22 | 33.81152 | -118.15564 | 11380 ft | 349 kts | 107° |
| 2026-05-08 06:22 | 33.80633 | -118.13699 | 11556 ft | 359 kts | 107° |
| 2026-05-08 06:23 | 33.79555 | -118.09824 | 11893 ft | 377 kts | 108° |
| 2026-05-08 06:23 | 33.78519 | -118.06862 | 12309 ft | 386 kts | 116° |
| 2026-05-08 06:23 | 33.77058 | -118.04137 | 12756 ft | 388 kts | 126° |
| 2026-05-08 06:23 | 33.75879 | -118.02504 | 12906 ft | 389 kts | 132° |
| 2026-05-08 06:24 | 33.73331 | -117.99448 | 12934 ft | 389 kts | 134° |
| 2026-05-08 06:24 | 33.71387 | -117.97183 | 12937 ft | 389 kts | 134° |
| 2026-05-08 06:24 | 33.69416 | -117.94885 | 12940 ft | 389 kts | 134° |
| 2026-05-08 06:24 | 33.67472 | -117.92606 | 12939 ft | 389 kts | 134° |
| 2026-05-08 06:25 | 33.66189 | -117.91099 | 12942 ft | 389 kts | 134° |
| 2026-05-08 06:25 | 33.63588 | -117.88039 | 12944 ft | 389 kts | 134° |
| 2026-05-08 06:25 | 33.61663 | -117.85774 | 12943 ft | 388 kts | 134° |
| 2026-05-08 06:25 | 33.59736 | -117.83504 | 12940 ft | 388 kts | 134° |
| 2026-05-08 06:26 | 33.57820 | -117.81249 | 12939 ft | 388 kts | 134° |
| 2026-05-08 06:26 | 33.55886 | -117.78973 | 12946 ft | 388 kts | 134° |
| 2026-05-08 06:26 | 33.53947 | -117.76695 | 12945 ft | 388 kts | 134° |
| 2026-05-08 06:26 | 33.52669 | -117.75193 | 12937 ft | 388 kts | 134° |
| 2026-05-08 06:27 | 33.50109 | -117.72188 | 12886 ft | 389 kts | 134° |
| 2026-05-08 06:27 | 33.48165 | -117.69906 | 12651 ft | 387 kts | 134° |
| 2026-05-08 06:27 | 33.46258 | -117.67669 | 12411 ft | 385 kts | 134° |
| 2026-05-08 06:27 | 33.44339 | -117.65422 | 12168 ft | 384 kts | 134° |
| 2026-05-08 06:28 | 33.42415 | -117.63169 | 11957 ft | 383 kts | 134° |
| 2026-05-08 06:28 | 33.40538 | -117.60974 | 11701 ft | 382 kts | 134° |
| 2026-05-08 06:28 | 33.38617 | -117.58730 | 11467 ft | 381 kts | 134° |
| 2026-05-08 06:28 | 33.36739 | -117.56535 | 11232 ft | 380 kts | 134° |
| 2026-05-08 06:29 | 33.34837 | -117.54315 | 10991 ft | 379 kts | 134° |
| 2026-05-08 06:29 | 33.32970 | -117.52136 | 10746 ft | 377 kts | 134° |
| 2026-05-08 06:29 | 33.31713 | -117.50670 | 10586 ft | 377 kts | 134° |
| 2026-05-08 06:29 | 33.29218 | -117.47765 | 10262 ft | 375 kts | 134° |
| 2026-05-08 06:30 | 33.27343 | -117.45582 | 9953 ft | 367 kts | 134° |
| 2026-05-08 06:30 | 33.25557 | -117.43520 | 9775 ft | 352 kts | 136° |
| 2026-05-08 06:30 | 33.23650 | -117.41829 | 9646 ft | 338 kts | 147° |
| 2026-05-08 06:30 | 33.21573 | -117.40639 | 9521 ft | 325 kts | 157° |
| 2026-05-08 06:31 | 33.19455 | -117.39729 | 9393 ft | 312 kts | 159° |
| 2026-05-08 06:31 | 33.17438 | -117.38913 | 9270 ft | 300 kts | 160° |
| 2026-05-08 06:31 | 33.16164 | -117.38397 | 9188 ft | 296 kts | 160° |
| 2026-05-08 06:31 | 33.13575 | -117.37334 | 9033 ft | 295 kts | 159° |
| 2026-05-08 06:32 | 33.11640 | -117.36529 | 8915 ft | 295 kts | 159° |
| 2026-05-08 06:32 | 33.09688 | -117.35711 | 8777 ft | 294 kts | 159° |
| 2026-05-08 06:32 | 33.07759 | -117.34901 | 8651 ft | 294 kts | 160° |
| 2026-05-08 06:32 | 33.05828 | -117.34090 | 8526 ft | 294 kts | 160° |
| 2026-05-08 06:33 | 33.03883 | -117.33273 | 8400 ft | 295 kts | 160° |
| 2026-05-08 06:33 | 33.01972 | -117.32470 | 8285 ft | 295 kts | 160° |
| 2026-05-08 06:33 | 33.00040 | -117.31659 | 8165 ft | 295 kts | 160° |
| 2026-05-08 06:33 | 32.98098 | -117.30845 | 8048 ft | 295 kts | 160° |
| 2026-05-08 06:34 | 32.96171 | -117.30037 | 7912 ft | 294 kts | 160° |
| 2026-05-08 06:34 | 32.94234 | -117.29225 | 7748 ft | 293 kts | 161° |
| 2026-05-08 06:34 | 32.92319 | -117.28423 | 7566 ft | 293 kts | 161° |
| 2026-05-08 06:34 | 32.90375 | -117.27609 | 7312 ft | 292 kts | 161° |
| 2026-05-08 06:35 | 32.88475 | -117.26815 | 6996 ft | 291 kts | 161° |
| 2026-05-08 06:35 | 32.86553 | -117.26011 | 6655 ft | 289 kts | 162° |
| 2026-05-08 06:35 | 32.84655 | -117.25217 | 6515 ft | 289 kts | 162° |
| 2026-05-08 06:35 | 32.82772 | -117.24432 | 6393 ft | 290 kts | 162° |
| 2026-05-08 06:36 | 32.80848 | -117.23613 | 6265 ft | 291 kts | 158° |
| 2026-05-08 06:36 | 32.79220 | -117.22243 | 6117 ft | 291 kts | 127° |
| 2026-05-08 06:36 | 32.78440 | -117.20076 | 5995 ft | 286 kts | 95° |
| 2026-05-08 06:36 | 32.78404 | -117.17712 | 5969 ft | 283 kts | 85° |
| 2026-05-08 06:37 | 32.78453 | -117.15366 | 5963 ft | 284 kts | 87° |
| 2026-05-08 06:37 | 32.78400 | -117.13001 | 5961 ft | 284 kts | 90° |
| 2026-05-08 06:37 | 32.78260 | -117.10702 | 5952 ft | 270 kts | 92° |
| 2026-05-08 06:37 | 32.78085 | -117.08558 | 5948 ft | 255 kts | 93° |
| 2026-05-08 06:38 | 32.77952 | -117.07183 | 5952 ft | 252 kts | 96° |
| 2026-05-08 06:38 | 32.77433 | -117.04449 | 5954 ft | 253 kts | 103° |
| 2026-05-08 06:38 | 32.76946 | -117.02447 | 5791 ft | 255 kts | 104° |
| 2026-05-08 06:38 | 32.76445 | -117.00435 | 5462 ft | 255 kts | 104° |
| 2026-05-08 06:39 | 32.75937 | -116.98405 | 5146 ft | 254 kts | 106° |
| 2026-05-08 06:39 | 32.75078 | -116.96590 | 4802 ft | 256 kts | 135° |
| 2026-05-08 06:39 | 32.73573 | -116.95489 | 4475 ft | 254 kts | 164° |
| 2026-05-08 06:39 | 32.71842 | -116.95351 | 4183 ft | 248 kts | 193° |
| 2026-05-08 06:40 | 32.70300 | -116.96118 | 3883 ft | 235 kts | 220° |
| 2026-05-08 06:40 | 32.69250 | -116.97502 | 3673 ft | 216 kts | 245° |
| 2026-05-08 06:40 | 32.68798 | -116.99073 | 3493 ft | 187 kts | 265° |
| 2026-05-08 06:40 | 32.68830 | -117.00527 | 3238 ft | 171 kts | 283° |
| 2026-05-08 06:41 | 32.69128 | -117.01844 | 3027 ft | 158 kts | 289° |
| 2026-05-08 06:41 | 32.69447 | -117.03062 | 2878 ft | 149 kts | 290° |
| 2026-05-08 06:41 | 32.69750 | -117.04220 | 2757 ft | 147 kts | 290° |
| 2026-05-08 06:41 | 32.70050 | -117.05393 | 2528 ft | 148 kts | 288° |
| 2026-05-08 06:42 | 32.70343 | -117.06554 | 2274 ft | 146 kts | 288° |
| 2026-05-08 06:42 | 32.70613 | -117.07711 | 2033 ft | 146 kts | 279° |
| 2026-05-08 06:42 | 32.70547 | -117.08508 | 1861 ft | 146 kts | 244° |
| 2026-05-08 06:42 | 32.69436 | -117.09306 | 1941 ft | 153 kts | 179° |
| 2026-05-08 06:43 | 32.68357 | -117.09164 | 2111 ft | 163 kts | 169° |
| 2026-05-08 06:43 | 32.67149 | -117.08881 | 2298 ft | 185 kts | 165° |
| 2026-05-08 06:43 | 32.65987 | -117.08180 | 2444 ft | 189 kts | 142° |
| 2026-05-08 06:43 | 32.65338 | -117.07503 | 2445 ft | 189 kts | 127° |
| 2026-05-08 06:44 | 32.64961 | -117.05557 | 2450 ft | 185 kts | 72° |
| 2026-05-08 06:44 | 32.65546 | -117.04218 | 2476 ft | 185 kts | 58° |
| 2026-05-08 06:44 | 32.65897 | -117.02762 | 2443 ft | 186 kts | 93° |
| 2026-05-08 06:44 | 32.65720 | -117.01749 | 2469 ft | 188 kts | 105° |
| 2026-05-08 06:45 | 32.65158 | -116.99791 | 2465 ft | 188 kts | 108° |
| 2026-05-08 06:45 | 32.64709 | -116.98336 | 2462 ft | 189 kts | 109° |
| 2026-05-08 06:45 | 32.64255 | -116.96872 | 2460 ft | 189 kts | 108° |
| 2026-05-08 06:45 | 32.64049 | -116.95357 | 2429 ft | 182 kts | 78° |
| 2026-05-08 06:46 | 32.64624 | -116.94179 | 2463 ft | 163 kts | 36° |
| 2026-05-08 06:46 | 32.65649 | -116.93689 | 2468 ft | 155 kts | 14° |
| 2026-05-08 06:46 | 32.66684 | -116.93418 | 2448 ft | 149 kts | 11° |
| 2026-05-08 06:46 | 32.67701 | -116.93180 | 2451 ft | 148 kts | 10° |
| 2026-05-08 06:47 | 32.68732 | -116.93172 | 2435 ft | 149 kts | 339° |
| 2026-05-08 06:47 | 32.69440 | -116.94022 | 2445 ft | 151 kts | 290° |
| 2026-05-08 06:47 | 32.69626 | -116.95266 | 2481 ft | 152 kts | 277° |
| 2026-05-08 06:47 | 32.69722 | -116.96506 | 2469 ft | 152 kts | 276° |
| 2026-05-08 06:48 | 32.69809 | -116.97761 | 2467 ft | 151 kts | 275° |
| 2026-05-08 06:48 | 32.69894 | -116.99017 | 2374 ft | 153 kts | 275° |
| 2026-05-08 06:48 | 32.69973 | -117.00253 | 2035 ft | 150 kts | 275° |
| 2026-05-08 06:48 | 32.69999 | -117.01495 | 1971 ft | 148 kts | 268° |
| 2026-05-08 06:49 | 32.69959 | -117.02716 | 1960 ft | 145 kts | 271° |
| 2026-05-08 06:49 | 32.70013 | -117.03912 | 1960 ft | 145 kts | 276° |
| 2026-05-08 06:49 | 32.70161 | -117.05114 | 1962 ft | 146 kts | 281° |
| 2026-05-08 06:49 | 32.70367 | -117.06297 | 1960 ft | 146 kts | 283° |
| 2026-05-08 06:50 | 32.70610 | -117.07473 | 1965 ft | 146 kts | 285° |
| 2026-05-08 06:50 | 32.70871 | -117.08636 | 1893 ft | 147 kts | 286° |
| 2026-05-08 06:50 | 32.71056 | -117.09428 | 1664 ft | 146 kts | 286° |
| 2026-05-08 06:50 | 32.71425 | -117.10974 | 1389 ft | 145 kts | 286° |
| 2026-05-08 06:51 | 32.71613 | -117.11753 | 1245 ft | 145 kts | 286° |
| 2026-05-08 06:51 | 32.71983 | -117.13280 | 954 ft | 144 kts | 286° |
| 2026-05-08 06:51 | 32.72263 | -117.14433 | 732 ft | 143 kts | 285° |
| 2026-05-08 06:51 | 32.72541 | -117.15582 | 509 ft | 142 kts | 285° |
| 2026-05-08 06:52 | 32.72814 | -117.16719 | 284 ft | 141 kts | 284° |
| 2026-05-08 06:52 | 32.73083 | -117.17841 | 68 ft | 140 kts | 285° |
| 2026-05-08 06:52 | 32.73338 | -117.18905 | 23 ft | 121 kts | 287° |
| 2026-05-08 06:52 | 32.73518 | -117.19636 | 20 ft | 51 kts | 286° |
| 2026-05-08 06:53 | 32.73582 | -117.19910 | 20 ft | 28 kts | 286° |
| 2026-05-08 06:53 | 32.73628 | -117.20100 | 20 ft | 17 kts | 284° |
| 2026-05-08 06:53 | 32.73618 | -117.20193 | 20 ft | 11 kts | 204° |
| 2026-05-08 06:53 | 32.73544 | -117.20231 | 20 ft | 12 kts | 200° |
| 2026-05-08 06:54 | 32.73486 | -117.20302 | 20 ft | 12 kts | 233° |
| 2026-05-08 06:54 | 32.73454 | -117.20348 | 20 ft | 1 kts | 230° |
| 2026-05-08 06:54 | 32.73451 | -117.20351 | 20 ft | 0 kts | 230° |